sensor_id;sensor_type;location;lat;lon;timestamp;P1;durP1;ratioP1;P2;durP2;ratioP2
3881;SDS011;1956;53.482;10.238;2023-05-10T00:04:27;5.03;;;3.43;;
3881;SDS011;1956;53.482;10.238;2023-05-10T00:09:27;3.23;;;2.93;;
3881;SDS011;1956;53.482;10.238;2023-05-10T00:14:27;4.57;;;4.13;;
3881;SDS011;1956;53.482;10.238;2023-05-10T00:19:27;3.97;;;3.60;;
3881;SDS011;1956;53.482;10.238;2023-05-10T00:24:28;3.77;;;3.47;;
3881;SDS011;1956;53.482;10.238;2023-05-10T00:29:28;3.63;;;3.10;;
3881;SDS011;1956;53.482;10.238;2023-05-10T00:34:28;3.70;;;3.50;;
3881;SDS011;1956;53.482;10.238;2023-05-10T00:39:28;4.93;;;3.57;;
3881;SDS011;1956;53.482;10.238;2023-05-10T00:44:29;6.73;;;3.23;;
3881;SDS011;1956;53.482;10.238;2023-05-10T00:49:29;5.83;;;4.27;;
3881;SDS011;1956;53.482;10.238;2023-05-10T00:54:29;4.40;;;3.37;;
3881;SDS011;1956;53.482;10.238;2023-05-10T00:59:30;5.33;;;3.67;;
3881;SDS011;1956;53.482;10.238;2023-05-10T01:04:30;6.50;;;4.07;;
3881;SDS011;1956;53.482;10.238;2023-05-10T01:09:31;3.50;;;3.20;;
3881;SDS011;1956;53.482;10.238;2023-05-10T01:14:32;6.90;;;4.10;;
3881;SDS011;1956;53.482;10.238;2023-05-10T01:19:32;6.83;;;3.03;;
3881;SDS011;1956;53.482;10.238;2023-05-10T01:36:11;3.63;;;3.27;;
3881;SDS011;1956;53.482;10.238;2023-05-10T01:40:48;3.33;;;3.10;;
3881;SDS011;1956;53.482;10.238;2023-05-10T01:46:05;3.87;;;3.47;;
3881;SDS011;1956;53.482;10.238;2023-05-10T01:51:10;4.20;;;3.80;;
3881;SDS011;1956;53.482;10.238;2023-05-10T01:56:11;6.87;;;3.40;;
3881;SDS011;1956;53.482;10.238;2023-05-10T02:01:11;5.33;;;3.63;;
3881;SDS011;1956;53.482;10.238;2023-05-10T02:06:12;7.00;;;3.37;;
3881;SDS011;1956;53.482;10.238;2023-05-10T02:11:14;3.80;;;3.40;;
3881;SDS011;1956;53.482;10.238;2023-05-10T02:16:14;5.05;;;3.58;;
3881;SDS011;1956;53.482;10.238;2023-05-10T02:21:16;6.40;;;3.03;;
3881;SDS011;1956;53.482;10.238;2023-05-10T02:26:17;9.13;;;3.63;;
3881;SDS011;1956;53.482;10.238;2023-05-10T02:31:18;7.50;;;4.07;;
3881;SDS011;1956;53.482;10.238;2023-05-10T02:36:18;4.63;;;3.67;;
3881;SDS011;1956;53.482;10.238;2023-05-10T02:41:20;6.47;;;4.03;;
3881;SDS011;1956;53.482;10.238;2023-05-10T02:46:22;6.17;;;3.77;;
3881;SDS011;1956;53.482;10.238;2023-05-10T02:51:24;5.00;;;3.43;;
3881;SDS011;1956;53.482;10.238;2023-05-10T02:56:25;6.77;;;3.67;;
3881;SDS011;1956;53.482;10.238;2023-05-10T03:01:28;4.70;;;4.23;;
3881;SDS011;1956;53.482;10.238;2023-05-10T03:06:29;6.50;;;3.40;;
3881;SDS011;1956;53.482;10.238;2023-05-10T03:16:55;9.33;;;3.90;;
3881;SDS011;1956;53.482;10.238;2023-05-10T03:21:58;6.43;;;3.73;;
3881;SDS011;1956;53.482;10.238;2023-05-10T03:26:59;6.63;;;4.40;;
3881;SDS011;1956;53.482;10.238;2023-05-10T03:32:02;4.20;;;3.60;;
3881;SDS011;1956;53.482;10.238;2023-05-10T03:37:03;3.73;;;3.43;;
3881;SDS011;1956;53.482;10.238;2023-05-10T03:42:03;5.97;;;3.67;;
3881;SDS011;1956;53.482;10.238;2023-05-10T03:47:03;3.57;;;3.27;;
3881;SDS011;1956;53.482;10.238;2023-05-10T03:52:04;4.50;;;3.83;;
3881;SDS011;1956;53.482;10.238;2023-05-10T03:57:05;4.43;;;4.03;;
3881;SDS011;1956;53.482;10.238;2023-05-10T04:02:05;16.73;;;4.75;;
3881;SDS011;1956;53.482;10.238;2023-05-10T04:07:05;8.23;;;3.60;;
3881;SDS011;1956;53.482;10.238;2023-05-10T04:12:06;4.50;;;3.20;;
3881;SDS011;1956;53.482;10.238;2023-05-10T04:17:06;4.53;;;4.03;;
3881;SDS011;1956;53.482;10.238;2023-05-10T04:22:06;5.37;;;3.60;;
3881;SDS011;1956;53.482;10.238;2023-05-10T04:27:06;4.53;;;4.13;;
3881;SDS011;1956;53.482;10.238;2023-05-10T04:32:07;5.30;;;3.87;;
3881;SDS011;1956;53.482;10.238;2023-05-10T04:37:07;4.80;;;4.40;;
3881;SDS011;1956;53.482;10.238;2023-05-10T04:42:07;5.73;;;3.83;;
3881;SDS011;1956;53.482;10.238;2023-05-10T04:47:08;5.30;;;4.00;;
3881;SDS011;1956;53.482;10.238;2023-05-10T04:52:08;3.97;;;3.60;;
3881;SDS011;1956;53.482;10.238;2023-05-10T04:57:08;7.77;;;4.40;;
3881;SDS011;1956;53.482;10.238;2023-05-10T05:02:09;3.83;;;3.53;;
3881;SDS011;1956;53.482;10.238;2023-05-10T05:07:09;10.20;;;4.20;;
3881;SDS011;1956;53.482;10.238;2023-05-10T05:12:09;12.53;;;4.40;;
3881;SDS011;1956;53.482;10.238;2023-05-10T05:17:13;4.73;;;4.23;;
3881;SDS011;1956;53.482;10.238;2023-05-10T05:22:14;6.20;;;3.80;;
3881;SDS011;1956;53.482;10.238;2023-05-10T05:27:14;4.33;;;3.87;;
3881;SDS011;1956;53.482;10.238;2023-05-10T05:32:14;5.23;;;3.50;;
3881;SDS011;1956;53.482;10.238;2023-05-10T05:37:15;4.97;;;4.20;;
3881;SDS011;1956;53.482;10.238;2023-05-10T05:42:15;4.70;;;4.30;;
3881;SDS011;1956;53.482;10.238;2023-05-10T05:47:17;4.23;;;3.83;;
3881;SDS011;1956;53.482;10.238;2023-05-10T05:52:17;4.60;;;4.20;;
3881;SDS011;1956;53.482;10.238;2023-05-10T05:57:18;5.53;;;4.53;;
3881;SDS011;1956;53.482;10.238;2023-05-10T06:02:18;5.80;;;4.10;;
3881;SDS011;1956;53.482;10.238;2023-05-10T06:07:18;4.45;;;4.05;;
3881;SDS011;1956;53.482;10.238;2023-05-10T06:12:18;10.03;;;4.00;;
3881;SDS011;1956;53.482;10.238;2023-05-10T06:17:19;10.68;;;3.80;;
3881;SDS011;1956;53.482;10.238;2023-05-10T06:22:19;4.90;;;4.43;;
3881;SDS011;1956;53.482;10.238;2023-05-10T06:27:19;5.32;;;4.57;;
3881;SDS011;1956;53.482;10.238;2023-05-10T06:32:19;9.50;;;4.70;;
3881;SDS011;1956;53.482;10.238;2023-05-10T06:37:20;6.47;;;3.70;;
3881;SDS011;1956;53.482;10.238;2023-05-10T06:42:20;6.93;;;4.70;;
3881;SDS011;1956;53.482;10.238;2023-05-10T06:47:20;4.50;;;4.10;;
3881;SDS011;1956;53.482;10.238;2023-05-10T06:52:21;12.30;;;4.20;;
3881;SDS011;1956;53.482;10.238;2023-05-10T06:57:22;6.00;;;4.67;;
3881;SDS011;1956;53.482;10.238;2023-05-10T07:02:22;6.03;;;4.57;;
3881;SDS011;1956;53.482;10.238;2023-05-10T07:07:22;5.53;;;4.10;;
3881;SDS011;1956;53.482;10.238;2023-05-10T07:12:23;4.77;;;3.70;;
3881;SDS011;1956;53.482;10.238;2023-05-10T07:17:23;4.33;;;3.80;;
3881;SDS011;1956;53.482;10.238;2023-05-10T07:22:23;5.30;;;4.47;;
3881;SDS011;1956;53.482;10.238;2023-05-10T07:27:24;5.70;;;3.50;;
3881;SDS011;1956;53.482;10.238;2023-05-10T07:32:25;4.20;;;3.80;;
3881;SDS011;1956;53.482;10.238;2023-05-10T07:37:25;4.40;;;3.53;;
3881;SDS011;1956;53.482;10.238;2023-05-10T07:42:25;5.33;;;4.83;;
3881;SDS011;1956;53.482;10.238;2023-05-10T07:47:25;3.80;;;3.50;;
3881;SDS011;1956;53.482;10.238;2023-05-10T07:52:26;6.03;;;4.03;;
3881;SDS011;1956;53.482;10.238;2023-05-10T07:57:26;7.10;;;4.10;;
3881;SDS011;1956;53.482;10.238;2023-05-10T08:02:26;5.20;;;4.17;;
3881;SDS011;1956;53.482;10.238;2023-05-10T08:07:27;4.17;;;3.87;;
3881;SDS011;1956;53.482;10.238;2023-05-10T08:12:27;4.90;;;4.40;;
3881;SDS011;1956;53.482;10.238;2023-05-10T08:17:27;4.60;;;4.20;;
3881;SDS011;1956;53.482;10.238;2023-05-10T08:22:27;6.07;;;4.10;;
3881;SDS011;1956;53.482;10.238;2023-05-10T08:27:28;6.93;;;4.10;;
3881;SDS011;1956;53.482;10.238;2023-05-10T08:32:28;4.47;;;4.00;;
3881;SDS011;1956;53.482;10.238;2023-05-10T08:37:29;5.40;;;4.00;;
3881;SDS011;1956;53.482;10.238;2023-05-10T08:42:30;5.13;;;4.63;;
3881;SDS011;1956;53.482;10.238;2023-05-10T08:47:31;5.43;;;4.27;;
3881;SDS011;1956;53.482;10.238;2023-05-10T08:52:31;5.17;;;4.20;;
3881;SDS011;1956;53.482;10.238;2023-05-10T08:57:32;4.50;;;4.07;;
3881;SDS011;1956;53.482;10.238;2023-05-10T09:02:33;5.33;;;3.90;;
3881;SDS011;1956;53.482;10.238;2023-05-10T09:07:33;6.20;;;4.07;;
3881;SDS011;1956;53.482;10.238;2023-05-10T09:12:33;5.90;;;5.40;;
3881;SDS011;1956;53.482;10.238;2023-05-10T09:17:34;4.87;;;4.43;;
3881;SDS011;1956;53.482;10.238;2023-05-10T09:22:35;9.50;;;4.77;;
3881;SDS011;1956;53.482;10.238;2023-05-10T09:27:35;4.90;;;4.53;;
3881;SDS011;1956;53.482;10.238;2023-05-10T09:32:39;8.83;;;4.70;;
3881;SDS011;1956;53.482;10.238;2023-05-10T09:37:40;5.83;;;4.43;;
3881;SDS011;1956;53.482;10.238;2023-05-10T09:48:13;7.60;;;4.50;;
3881;SDS011;1956;53.482;10.238;2023-05-10T09:53:14;7.40;;;4.70;;
3881;SDS011;1956;53.482;10.238;2023-05-10T09:58:14;5.00;;;4.50;;
3881;SDS011;1956;53.482;10.238;2023-05-10T10:03:15;4.37;;;3.97;;
3881;SDS011;1956;53.482;10.238;2023-05-10T10:08:16;4.70;;;4.30;;
3881;SDS011;1956;53.482;10.238;2023-05-10T10:13:17;4.60;;;4.20;;
3881;SDS011;1956;53.482;10.238;2023-05-10T10:18:17;6.47;;;5.80;;
3881;SDS011;1956;53.482;10.238;2023-05-10T10:23:18;15.27;;;5.67;;
3881;SDS011;1956;53.482;10.238;2023-05-10T10:28:26;6.23;;;5.60;;
3881;SDS011;1956;53.482;10.238;2023-05-10T10:33:36;9.53;;;6.53;;
3881;SDS011;1956;53.482;10.238;2023-05-10T10:38:57;11.27;;;7.50;;
3881;SDS011;1956;53.482;10.238;2023-05-10T10:49:19;7.40;;;6.70;;
3881;SDS011;1956;53.482;10.238;2023-05-10T10:54:26;12.18;;;7.95;;
3881;SDS011;1956;53.482;10.238;2023-05-10T10:59:27;9.00;;;8.10;;
3881;SDS011;1956;53.482;10.238;2023-05-10T11:04:28;11.40;;;8.83;;
3881;SDS011;1956;53.482;10.238;2023-05-10T11:09:28;10.70;;;8.43;;
3881;SDS011;1956;53.482;10.238;2023-05-10T11:14:39;8.70;;;7.87;;
3881;SDS011;1956;53.482;10.238;2023-05-10T11:19:57;9.13;;;8.20;;
3881;SDS011;1956;53.482;10.238;2023-05-10T11:25:00;13.00;;;8.67;;
3881;SDS011;1956;53.482;10.238;2023-05-10T11:30:01;8.17;;;7.37;;
3881;SDS011;1956;53.482;10.238;2023-05-10T11:35:06;10.47;;;9.33;;
3881;SDS011;1956;53.482;10.238;2023-05-10T11:40:09;11.50;;;9.20;;
3881;SDS011;1956;53.482;10.238;2023-05-10T11:45:10;13.37;;;9.13;;
3881;SDS011;1956;53.482;10.238;2023-05-10T11:50:10;10.83;;;8.60;;
3881;SDS011;1956;53.482;10.238;2023-05-10T11:55:11;11.13;;;9.37;;
3881;SDS011;1956;53.482;10.238;2023-05-10T12:00:12;10.43;;;8.50;;
3881;SDS011;1956;53.482;10.238;2023-05-10T12:05:13;10.43;;;9.33;;
3881;SDS011;1956;53.482;10.238;2023-05-10T12:10:13;9.30;;;8.40;;
3881;SDS011;1956;53.482;10.238;2023-05-10T12:15:21;13.50;;;10.00;;
3881;SDS011;1956;53.482;10.238;2023-05-10T12:20:22;11.93;;;9.30;;
3881;SDS011;1956;53.482;10.238;2023-05-10T12:25:23;11.13;;;10.03;;
3881;SDS011;1956;53.482;10.238;2023-05-10T12:30:24;12.23;;;10.37;;
3881;SDS011;1956;53.482;10.238;2023-05-10T12:35:25;11.90;;;9.93;;
3881;SDS011;1956;53.482;10.238;2023-05-10T12:40:25;10.73;;;9.43;;
3881;SDS011;1956;53.482;10.238;2023-05-10T12:45:26;12.93;;;10.37;;
3881;SDS011;1956;53.482;10.238;2023-05-10T12:50:26;12.38;;;9.10;;
3881;SDS011;1956;53.482;10.238;2023-05-10T12:55:26;8.17;;;7.37;;
3881;SDS011;1956;53.482;10.238;2023-05-10T13:00:26;9.40;;;8.50;;
3881;SDS011;1956;53.482;10.238;2023-05-10T13:05:27;10.07;;;8.00;;
3881;SDS011;1956;53.482;10.238;2023-05-10T13:10:28;8.57;;;7.77;;
3881;SDS011;1956;53.482;10.238;2023-05-10T13:15:29;8.17;;;7.37;;
3881;SDS011;1956;53.482;10.238;2023-05-10T13:20:29;9.30;;;7.50;;
3881;SDS011;1956;53.482;10.238;2023-05-10T13:25:29;9.60;;;8.20;;
3881;SDS011;1956;53.482;10.238;2023-05-10T13:30:30;8.73;;;7.90;;
3881;SDS011;1956;53.482;10.238;2023-05-10T13:35:30;9.13;;;6.13;;
3881;SDS011;1956;53.482;10.238;2023-05-10T13:40:30;7.23;;;6.40;;
3881;SDS011;1956;53.482;10.238;2023-05-10T13:45:30;9.00;;;7.43;;
3881;SDS011;1956;53.482;10.238;2023-05-10T13:50:31;8.00;;;7.20;;
3881;SDS011;1956;53.482;10.238;2023-05-10T13:55:31;8.77;;;7.80;;
3881;SDS011;1956;53.482;10.238;2023-05-10T14:00:31;7.05;;;6.35;;
3881;SDS011;1956;53.482;10.238;2023-05-10T14:05:32;9.27;;;7.40;;
3881;SDS011;1956;53.482;10.238;2023-05-10T14:10:32;8.40;;;7.07;;
3881;SDS011;1956;53.482;10.238;2023-05-10T14:15:32;8.50;;;7.67;;
3881;SDS011;1956;53.482;10.238;2023-05-10T14:20:33;9.10;;;7.97;;
3881;SDS011;1956;53.482;10.238;2023-05-10T14:25:33;9.23;;;8.33;;
3881;SDS011;1956;53.482;10.238;2023-05-10T14:30:34;8.07;;;7.07;;
3881;SDS011;1956;53.482;10.238;2023-05-10T14:35:34;7.87;;;7.03;;
3881;SDS011;1956;53.482;10.238;2023-05-10T14:40:35;7.57;;;6.75;;
3881;SDS011;1956;53.482;10.238;2023-05-10T14:45:35;8.97;;;8.00;;
3881;SDS011;1956;53.482;10.238;2023-05-10T14:50:36;8.63;;;7.27;;
3881;SDS011;1956;53.482;10.238;2023-05-10T14:55:36;9.20;;;6.63;;
3881;SDS011;1956;53.482;10.238;2023-05-10T15:00:36;6.70;;;6.10;;
3881;SDS011;1956;53.482;10.238;2023-05-10T15:05:37;13.03;;;6.47;;
3881;SDS011;1956;53.482;10.238;2023-05-10T15:10:38;10.87;;;6.07;;
3881;SDS011;1956;53.482;10.238;2023-05-10T15:15:38;5.77;;;5.27;;
3881;SDS011;1956;53.482;10.238;2023-05-10T15:20:38;7.23;;;6.53;;
3881;SDS011;1956;53.482;10.238;2023-05-10T15:25:38;5.97;;;5.30;;
3881;SDS011;1956;53.482;10.238;2023-05-10T15:30:39;5.90;;;5.43;;
3881;SDS011;1956;53.482;10.238;2023-05-10T15:35:39;5.70;;;4.80;;
3881;SDS011;1956;53.482;10.238;2023-05-10T15:40:40;5.47;;;4.97;;
3881;SDS011;1956;53.482;10.238;2023-05-10T15:45:40;5.97;;;4.95;;
3881;SDS011;1956;53.482;10.238;2023-05-10T15:50:40;5.70;;;5.20;;
3881;SDS011;1956;53.482;10.238;2023-05-10T15:55:40;5.43;;;5.03;;
3881;SDS011;1956;53.482;10.238;2023-05-10T16:00:41;5.57;;;5.17;;
3881;SDS011;1956;53.482;10.238;2023-05-10T16:05:41;5.90;;;5.40;;
3881;SDS011;1956;53.482;10.238;2023-05-10T16:10:41;5.47;;;4.97;;
3881;SDS011;1956;53.482;10.238;2023-05-10T16:15:44;4.73;;;4.43;;
3881;SDS011;1956;53.482;10.238;2023-05-10T16:20:45;6.32;;;5.82;;
3881;SDS011;1956;53.482;10.238;2023-05-10T16:25:45;5.43;;;4.90;;
3881;SDS011;1956;53.482;10.238;2023-05-10T16:30:46;4.80;;;4.40;;
3881;SDS011;1956;53.482;10.238;2023-05-10T16:35:46;4.57;;;4.17;;
3881;SDS011;1956;53.482;10.238;2023-05-10T16:40:46;4.85;;;4.10;;
3881;SDS011;1956;53.482;10.238;2023-05-10T16:45:47;6.63;;;3.70;;
3881;SDS011;1956;53.482;10.238;2023-05-10T16:50:47;5.13;;;4.67;;
3881;SDS011;1956;53.482;10.238;2023-05-10T16:55:47;3.80;;;3.50;;
3881;SDS011;1956;53.482;10.238;2023-05-10T17:00:47;4.35;;;3.92;;
3881;SDS011;1956;53.482;10.238;2023-05-10T17:05:48;3.70;;;3.40;;
3881;SDS011;1956;53.482;10.238;2023-05-10T17:10:48;2.83;;;2.63;;
3881;SDS011;1956;53.482;10.238;2023-05-10T17:15:48;2.33;;;2.23;;
3881;SDS011;1956;53.482;10.238;2023-05-10T17:20:49;3.30;;;3.00;;
3881;SDS011;1956;53.482;10.238;2023-05-10T17:25:49;2.87;;;2.63;;
3881;SDS011;1956;53.482;10.238;2023-05-10T17:30:55;2.70;;;2.30;;
3881;SDS011;1956;53.482;10.238;2023-05-10T17:35:56;2.77;;;2.67;;
3881;SDS011;1956;53.482;10.238;2023-05-10T17:40:57;3.70;;;3.40;;
3881;SDS011;1956;53.482;10.238;2023-05-10T17:45:57;4.17;;;3.83;;
3881;SDS011;1956;53.482;10.238;2023-05-10T17:50:57;4.33;;;3.00;;
3881;SDS011;1956;53.482;10.238;2023-05-10T17:55:57;3.30;;;3.07;;
3881;SDS011;1956;53.482;10.238;2023-05-10T18:01:00;4.07;;;3.77;;
3881;SDS011;1956;53.482;10.238;2023-05-10T18:06:03;4.90;;;4.40;;
3881;SDS011;1956;53.482;10.238;2023-05-10T18:11:03;4.63;;;4.23;;
3881;SDS011;1956;53.482;10.238;2023-05-10T18:16:04;4.60;;;4.20;;
3881;SDS011;1956;53.482;10.238;2023-05-10T18:21:05;3.93;;;3.73;;
3881;SDS011;1956;53.482;10.238;2023-05-10T18:26:06;3.40;;;3.20;;
3881;SDS011;1956;53.482;10.238;2023-05-10T18:31:07;5.10;;;4.70;;
3881;SDS011;1956;53.482;10.238;2023-05-10T18:36:07;5.77;;;5.07;;
3881;SDS011;1956;53.482;10.238;2023-05-10T18:41:07;5.57;;;5.17;;
3881;SDS011;1956;53.482;10.238;2023-05-10T18:46:11;7.33;;;6.70;;
3881;SDS011;1956;53.482;10.238;2023-05-10T18:51:11;7.85;;;7.05;;
3881;SDS011;1956;53.482;10.238;2023-05-10T18:56:11;7.40;;;6.72;;
3881;SDS011;1956;53.482;10.238;2023-05-10T19:01:12;7.13;;;6.53;;
3881;SDS011;1956;53.482;10.238;2023-05-10T19:06:12;7.17;;;6.47;;
3881;SDS011;1956;53.482;10.238;2023-05-10T19:11:12;6.23;;;5.60;;
3881;SDS011;1956;53.482;10.238;2023-05-10T19:16:13;5.60;;;5.00;;
3881;SDS011;1956;53.482;10.238;2023-05-10T19:21:17;5.50;;;5.00;;
3881;SDS011;1956;53.482;10.238;2023-05-10T19:26:17;5.65;;;5.15;;
3881;SDS011;1956;53.482;10.238;2023-05-10T19:31:18;5.80;;;4.90;;
3881;SDS011;1956;53.482;10.238;2023-05-10T19:36:19;6.10;;;5.50;;
3881;SDS011;1956;53.482;10.238;2023-05-10T19:41:19;6.53;;;5.80;;
3881;SDS011;1956;53.482;10.238;2023-05-10T19:46:19;6.03;;;5.43;;
3881;SDS011;1956;53.482;10.238;2023-05-10T19:51:19;6.90;;;5.97;;
3881;SDS011;1956;53.482;10.238;2023-05-10T19:56:20;6.73;;;5.70;;
3881;SDS011;1956;53.482;10.238;2023-05-10T20:01:20;6.77;;;6.17;;
3881;SDS011;1956;53.482;10.238;2023-05-10T20:06:20;5.90;;;5.27;;
3881;SDS011;1956;53.482;10.238;2023-05-10T20:11:21;11.73;;;5.27;;
3881;SDS011;1956;53.482;10.238;2023-05-10T20:16:21;6.63;;;6.03;;
3881;SDS011;1956;53.482;10.238;2023-05-10T20:21:21;7.90;;;7.10;;
3881;SDS011;1956;53.482;10.238;2023-05-10T20:26:22;8.23;;;5.70;;
3881;SDS011;1956;53.482;10.238;2023-05-10T20:31:23;6.10;;;5.50;;
3881;SDS011;1956;53.482;10.238;2023-05-10T20:36:23;6.83;;;5.97;;
3881;SDS011;1956;53.482;10.238;2023-05-10T20:41:23;5.05;;;4.63;;
3881;SDS011;1956;53.482;10.238;2023-05-10T20:46:23;6.10;;;5.40;;
3881;SDS011;1956;53.482;10.238;2023-05-10T20:51:25;7.20;;;5.80;;
3881;SDS011;1956;53.482;10.238;2023-05-10T20:56:30;5.77;;;5.27;;
3881;SDS011;1956;53.482;10.238;2023-05-10T21:01:30;6.50;;;5.70;;
3881;SDS011;1956;53.482;10.238;2023-05-10T21:06:31;6.90;;;6.20;;
3881;SDS011;1956;53.482;10.238;2023-05-10T21:11:32;5.97;;;5.38;;
3881;SDS011;1956;53.482;10.238;2023-05-10T21:16:32;8.03;;;7.20;;
3881;SDS011;1956;53.482;10.238;2023-05-10T21:21:33;10.60;;;7.83;;
3881;SDS011;1956;53.482;10.238;2023-05-10T21:26:33;8.13;;;7.32;;
3881;SDS011;1956;53.482;10.238;2023-05-10T21:31:33;8.00;;;7.20;;
3881;SDS011;1956;53.482;10.238;2023-05-10T21:36:34;7.90;;;7.13;;
3881;SDS011;1956;53.482;10.238;2023-05-10T21:41:34;7.80;;;7.10;;
3881;SDS011;1956;53.482;10.238;2023-05-10T21:46:34;9.30;;;8.20;;
3881;SDS011;1956;53.482;10.238;2023-05-10T21:51:35;9.93;;;7.90;;
3881;SDS011;1956;53.482;10.238;2023-05-10T21:56:35;10.50;;;9.37;;
3881;SDS011;1956;53.482;10.238;2023-05-10T22:01:36;9.97;;;8.93;;
3881;SDS011;1956;53.482;10.238;2023-05-10T22:06:36;11.50;;;9.57;;
3881;SDS011;1956;53.482;10.238;2023-05-10T22:11:36;10.27;;;9.20;;
3881;SDS011;1956;53.482;10.238;2023-05-10T22:16:36;11.17;;;9.87;;
3881;SDS011;1956;53.482;10.238;2023-05-10T22:21:37;10.60;;;9.57;;
3881;SDS011;1956;53.482;10.238;2023-05-10T22:26:37;12.13;;;10.50;;
3881;SDS011;1956;53.482;10.238;2023-05-10T22:31:37;14.20;;;11.27;;
3881;SDS011;1956;53.482;10.238;2023-05-10T22:36:37;16.37;;;11.90;;
3881;SDS011;1956;53.482;10.238;2023-05-10T22:41:37;12.85;;;11.13;;
3881;SDS011;1956;53.482;10.238;2023-05-10T22:46:38;15.25;;;12.57;;
3881;SDS011;1956;53.482;10.238;2023-05-10T22:51:38;15.90;;;12.63;;
3881;SDS011;1956;53.482;10.238;2023-05-10T22:56:38;17.30;;;13.40;;
3881;SDS011;1956;53.482;10.238;2023-05-10T23:01:38;19.90;;;14.60;;
3881;SDS011;1956;53.482;10.238;2023-05-10T23:06:39;19.97;;;14.57;;
3881;SDS011;1956;53.482;10.238;2023-05-10T23:11:40;21.03;;;14.73;;
3881;SDS011;1956;53.482;10.238;2023-05-10T23:16:40;21.73;;;15.50;;
3881;SDS011;1956;53.482;10.238;2023-05-10T23:21:41;21.02;;;15.60;;
3881;SDS011;1956;53.482;10.238;2023-05-10T23:26:41;23.87;;;16.70;;
3881;SDS011;1956;53.482;10.238;2023-05-10T23:31:46;20.17;;;14.00;;
3881;SDS011;1956;53.482;10.238;2023-05-10T23:36:47;17.07;;;12.17;;
3881;SDS011;1956;53.482;10.238;2023-05-10T23:41:47;17.70;;;12.10;;
3881;SDS011;1956;53.482;10.238;2023-05-10T23:46:48;19.57;;;12.50;;
3881;SDS011;1956;53.482;10.238;2023-05-10T23:51:48;17.50;;;12.27;;
3881;SDS011;1956;53.482;10.238;2023-05-10T23:56:49;23.95;;;12.65;;
